Main page
METAR-TAF:

METAR-TAF

Airports :

Recife/Guararapes–Gilberto Freyre International Airport

Recife, Pernambuco, Brazil

latitude: 08-08S, longitude: 034-55W, elevation: 19 m

Current weather observation

The report was made 1 hour and 9 minutes ago, at 18:00 UTC
Wind 12 kt from the Southeast, varying between East/Southeast and South
Temperature 28°C
Humidity 70%
Pressure 1011 hPa
Visibility 10 km or more
Broken clouds at a height of 2300 ft

METAR: SBRF 131800Z 14012KT 110V170 9999 BKN023 28/22 Q1011

Time: 16:09 (19:09 UTC)

Forecast

The report was made 3 hours and 9 minutes ago, at 16:00 UTC
Forecast valid from 13 at 18 UTC to 14 at 18 UTC
Wind 9 kt from the East/Southeast
Visibility 10 km or more
Scattered clouds at a height of 2200 ft

TAF: SBRF 131600Z 1318/1418 12009KT 9999 SCT022 TN26/1408Z TX30/1415Z RMK PBO

Weather observations and forecasts of more than 4000 airports (METAR and TAF reports).

The available stations are represented by yellow and red dots on the map.

Hover mouse over dot to see the name of the station.

Then click to see weather observations and forecasts.

To change the map : click on the green buttons with a black cross to zoom in, on the green button with a dash to zoom out, or on the green arrows for adjacent maps.


METAR-TAF: